createdAt,value
2022-08-03T00:01:41.572Z,4.10
2022-08-03T00:06:41.289Z,4.10
2022-08-03T00:09:11.286Z,4.30
2022-08-03T00:11:41.440Z,4.30
2022-08-03T00:14:10.968Z,4.30
2022-08-03T00:16:40.983Z,4.30
2022-08-03T00:19:11.045Z,4.60
2022-08-03T00:21:40.962Z,4.60
2022-08-03T00:24:11.169Z,4.60
2022-08-03T00:26:41.230Z,4.60
2022-08-03T00:29:11.035Z,4.80
2022-08-03T00:34:11.130Z,4.80
2022-08-03T00:36:41.048Z,4.80
2022-08-03T00:39:10.918Z,4.60
2022-08-03T00:41:41.034Z,4.60
2022-08-03T00:44:10.953Z,4.60
2022-08-03T00:49:11.087Z,4.90
2022-08-03T00:51:41.042Z,4.90
2022-08-03T00:54:11.143Z,4.90
2022-08-03T00:56:59.466Z,4.90
2022-08-03T00:59:11.936Z,4.40
2022-08-03T01:01:41.148Z,4.40
2022-08-03T01:04:10.999Z,4.40
2022-08-03T01:09:19.588Z,4.40
2022-08-03T01:12:00.701Z,4.40
2022-08-03T01:14:19.023Z,4.40
2022-08-03T01:16:49.171Z,4.40
2022-08-03T01:19:30.085Z,4.20
2022-08-03T01:21:57.002Z,4.20
2022-08-03T01:24:29.413Z,4.20
2022-08-03T01:26:54.975Z,4.20
2022-08-03T01:29:30.821Z,5.60
2022-08-03T01:32:54.552Z,5.60
2022-08-03T01:34:14.925Z,5.60
2022-08-03T01:36:45.750Z,5.60
2022-08-03T01:39:11.644Z,4.70
2022-08-03T01:44:29.522Z,4.70
2022-08-03T01:46:47.608Z,4.70
2022-08-03T01:49:12.597Z,4.30
2022-08-03T01:52:03.583Z,4.30
2022-08-03T01:59:15.428Z,4.70
2022-08-03T02:02:29.053Z,4.70
2022-08-03T02:04:13.628Z,4.70
2022-08-03T02:07:00.139Z,4.70
2022-08-03T02:09:12.531Z,4.50
2022-08-03T02:11:42.842Z,4.50
2022-08-03T02:16:43.953Z,4.50
2022-08-03T02:19:12.712Z,4.60
2022-08-03T02:21:56.981Z,4.60
2022-08-03T02:24:11.175Z,4.60
2022-08-03T02:29:17.689Z,4.90
2022-08-03T02:31:44.035Z,4.90
2022-08-03T02:34:13.432Z,4.90
2022-08-03T02:36:45.707Z,4.90
2022-08-03T02:39:14.970Z,4.50
2022-08-03T02:41:45.301Z,4.50
2022-08-03T02:44:12.667Z,4.50
2022-08-03T02:46:45.664Z,4.50
2022-08-03T02:49:40.652Z,4.00
2022-08-03T02:51:42.839Z,4.00
2022-08-03T02:54:16.143Z,4.00
2022-08-03T02:56:42.351Z,4.00
2022-08-03T02:59:12.290Z,4.30
2022-08-03T03:01:41.170Z,4.30
2022-08-03T03:04:11.950Z,4.30
2022-08-03T03:06:41.340Z,4.30
2022-08-03T03:09:11.347Z,4.60
2022-08-03T03:11:42.470Z,4.60
2022-08-03T03:14:12.418Z,4.60
2022-08-03T03:19:13.382Z,4.80
2022-08-03T03:21:42.165Z,4.80
2022-08-03T03:24:11.421Z,4.80
2022-08-03T03:26:42.592Z,4.80
2022-08-03T03:29:11.560Z,4.00
2022-08-03T03:31:41.202Z,4.00
2022-08-03T03:36:41.165Z,4.00
2022-08-03T03:39:15.783Z,4.30
2022-08-03T03:41:41.679Z,4.30
2022-08-03T03:44:12.260Z,4.30
2022-08-03T03:46:41.313Z,4.30
2022-08-03T03:49:11.979Z,4.60
2022-08-03T03:51:41.044Z,4.60
2022-08-03T03:54:11.069Z,4.60
2022-08-03T03:56:41.153Z,4.60
2022-08-03T03:59:11.447Z,4.20
2022-08-03T04:01:41.522Z,4.20
2022-08-03T04:06:51.173Z,4.20
2022-08-03T04:09:21.147Z,4.70
2022-08-03T04:11:48.008Z,4.70
2022-08-03T04:14:15.477Z,4.70
2022-08-03T04:16:45.205Z,4.70
2022-08-03T04:19:17.412Z,4.10
2022-08-03T04:21:46.432Z,4.10
2022-08-03T04:24:14.526Z,4.10
2022-08-03T04:29:13.413Z,4.30
2022-08-03T04:31:42.330Z,4.30
2022-08-03T04:34:11.581Z,4.30
2022-08-03T04:36:47.862Z,4.30
2022-08-03T04:39:17.205Z,4.50
2022-08-03T04:42:02.289Z,4.50
2022-08-03T04:44:13.451Z,4.50
2022-08-03T04:46:50.449Z,4.50
2022-08-03T04:51:41.840Z,4.10
2022-08-03T04:54:11.351Z,4.10
2022-08-03T04:56:41.534Z,4.10
2022-08-03T04:59:11.399Z,4.20
2022-08-03T05:01:41.204Z,4.20
2022-08-03T05:09:11.140Z,3.90
2022-08-03T05:14:11.056Z,3.90
2022-08-03T05:19:11.164Z,3.90
2022-08-03T05:21:51.895Z,3.90
2022-08-03T05:24:11.064Z,3.90
2022-08-03T05:26:41.157Z,3.90
2022-08-03T05:29:11.219Z,4.40
2022-08-03T05:31:41.297Z,4.40
2022-08-03T05:34:11.228Z,4.40
2022-08-03T05:36:41.090Z,4.40
2022-08-03T05:39:11.152Z,4.90
2022-08-03T05:41:41.145Z,4.90
2022-08-03T05:44:11.100Z,4.90
2022-08-03T05:46:41.268Z,4.90
2022-08-03T05:49:11.195Z,4.20
2022-08-03T05:51:41.086Z,4.20
2022-08-03T05:54:11.338Z,4.20
2022-08-03T05:56:41.678Z,4.20
2022-08-03T05:59:35.676Z,4.60
2022-08-03T06:01:41.141Z,4.60
2022-08-03T06:04:11.091Z,4.60
2022-08-03T06:09:11.137Z,4.60
2022-08-03T06:11:41.461Z,4.60
2022-08-03T06:14:11.287Z,4.60
2022-08-03T06:16:41.123Z,4.60
2022-08-03T06:19:11.097Z,4.90
2022-08-03T06:21:41.232Z,4.90
2022-08-03T06:24:11.346Z,4.90
2022-08-03T06:26:41.301Z,4.90
2022-08-03T06:29:11.108Z,5.70
2022-08-03T06:31:41.110Z,5.70
2022-08-03T06:34:33.268Z,5.70
2022-08-03T06:36:41.227Z,5.70
2022-08-03T06:39:12.287Z,4.60
2022-08-03T06:41:44.658Z,4.60
2022-08-03T06:44:11.382Z,4.60
2022-08-03T06:46:42.328Z,4.60
2022-08-03T06:49:11.329Z,5.90
2022-08-03T06:52:03.465Z,5.90
2022-08-03T06:54:11.413Z,5.90
2022-08-03T06:56:41.249Z,5.90
2022-08-03T07:00:06.177Z,4.90
2022-08-03T07:01:41.570Z,4.90
2022-08-03T07:04:11.278Z,4.90
2022-08-03T07:06:41.208Z,4.90
2022-08-03T07:09:11.114Z,4.50
2022-08-03T07:11:41.230Z,4.50
2022-08-03T07:14:11.232Z,4.50
2022-08-03T07:16:41.148Z,4.50
2022-08-03T07:19:11.335Z,5.00
2022-08-03T07:21:41.389Z,5.00
2022-08-03T07:24:11.134Z,5.00
2022-08-03T07:26:41.291Z,5.00
2022-08-03T07:29:15.090Z,5.40
2022-08-03T07:31:41.306Z,5.40
2022-08-03T07:34:11.608Z,5.40
2022-08-03T07:36:41.198Z,5.40
2022-08-03T07:39:14.722Z,5.40
2022-08-03T07:41:41.868Z,5.40
2022-08-03T07:44:11.258Z,5.40
2022-08-03T07:46:41.181Z,5.40
2022-08-03T07:49:11.503Z,5.50
2022-08-03T07:51:41.333Z,5.50
2022-08-03T07:54:11.220Z,5.50
2022-08-03T07:56:41.260Z,5.50
2022-08-03T07:59:11.143Z,5.40
2022-08-03T08:01:41.487Z,5.40
2022-08-03T08:04:11.181Z,5.40
2022-08-03T08:06:41.161Z,5.40
2022-08-03T08:09:11.275Z,5.80
2022-08-03T08:11:41.220Z,5.80
2022-08-03T08:14:11.675Z,5.80
2022-08-03T08:16:41.536Z,5.80
2022-08-03T08:19:11.121Z,5.40
2022-08-03T08:21:52.945Z,5.40
2022-08-03T08:24:18.018Z,5.40
2022-08-03T08:26:41.169Z,5.40
2022-08-03T08:29:11.405Z,6.10
2022-08-03T08:31:41.326Z,6.10
2022-08-03T08:34:11.373Z,6.10
2022-08-03T08:36:41.280Z,6.10
2022-08-03T08:39:11.304Z,6.70
2022-08-03T08:41:45.926Z,6.70
2022-08-03T08:44:11.286Z,6.70
2022-08-03T08:46:42.038Z,6.70
2022-08-03T08:49:12.753Z,6.40
2022-08-03T08:51:54.809Z,6.40
2022-08-03T08:54:12.688Z,6.40
2022-08-03T08:56:43.341Z,6.40
2022-08-03T08:59:11.978Z,6.60
2022-08-03T09:01:41.619Z,6.60
2022-08-03T09:04:11.697Z,6.60
2022-08-03T09:06:50.203Z,6.60
2022-08-03T09:09:11.238Z,7.30
2022-08-03T09:11:54.403Z,7.30
2022-08-03T09:16:55.657Z,7.30
2022-08-03T09:19:12.964Z,7.90
2022-08-03T09:21:41.270Z,7.90
2022-08-03T09:24:25.725Z,7.90
2022-08-03T09:26:50.082Z,7.90
2022-08-03T09:29:15.047Z,8.70
2022-08-03T09:31:44.671Z,8.70
2022-08-03T09:34:13.451Z,8.70
2022-08-03T09:36:43.602Z,8.70
2022-08-03T09:39:13.149Z,9.60
2022-08-03T09:41:44.892Z,9.60
2022-08-03T09:44:24.306Z,9.60
2022-08-03T09:46:50.172Z,9.60
2022-08-03T09:49:12.018Z,10.30
2022-08-03T09:52:32.046Z,10.30
2022-08-03T09:54:18.834Z,10.30
2022-08-03T09:56:43.516Z,10.30
2022-08-03T09:59:13.295Z,11.00
2022-08-03T10:01:41.389Z,11.00
2022-08-03T10:04:13.620Z,11.00
2022-08-03T10:06:43.080Z,11.00
2022-08-03T10:09:13.930Z,10.10
2022-08-03T10:11:42.757Z,10.10
2022-08-03T10:14:17.962Z,10.10
2022-08-03T10:16:41.255Z,10.10
2022-08-03T10:19:12.950Z,10.20
2022-08-03T10:21:47.833Z,10.20
2022-08-03T10:24:14.696Z,10.20
2022-08-03T10:26:49.892Z,10.20
2022-08-03T10:29:17.603Z,8.80
2022-08-03T10:31:57.336Z,8.80
2022-08-03T10:34:21.784Z,8.80
2022-08-03T10:36:42.835Z,8.80
2022-08-03T10:39:15.946Z,8.20
2022-08-03T10:41:45.254Z,8.20
2022-08-03T10:44:16.893Z,8.20
2022-08-03T10:46:44.966Z,8.20
2022-08-03T10:49:13.002Z,7.90
2022-08-03T10:51:43.430Z,7.90
2022-08-03T10:54:31.114Z,7.90
2022-08-03T10:56:51.310Z,7.90
2022-08-03T10:59:11.441Z,7.70
2022-08-03T11:01:58.766Z,7.70
2022-08-03T11:04:17.072Z,7.70
2022-08-03T11:06:41.422Z,7.70
2022-08-03T11:09:16.826Z,8.10
2022-08-03T11:11:42.443Z,8.10
2022-08-03T11:14:13.031Z,8.10
2022-08-03T11:16:44.874Z,8.10
2022-08-03T11:19:14.167Z,7.90
2022-08-03T11:21:53.132Z,7.90
2022-08-03T11:24:32.601Z,7.90
2022-08-03T11:27:05.773Z,7.90
2022-08-03T11:29:29.906Z,8.20
2022-08-03T11:31:50.631Z,8.20
2022-08-03T11:34:13.693Z,8.20
2022-08-03T11:37:01.079Z,8.20
2022-08-03T11:39:12.050Z,7.90
2022-08-03T11:41:44.831Z,7.90
2022-08-03T11:44:31.165Z,7.90
2022-08-03T11:46:42.222Z,7.90
2022-08-03T11:49:11.607Z,7.80
2022-08-03T11:51:41.361Z,7.80
2022-08-03T11:54:11.388Z,7.80
2022-08-03T11:56:44.053Z,7.80
2022-08-03T11:59:18.964Z,6.90
2022-08-03T12:01:41.837Z,6.90
2022-08-03T12:04:11.297Z,6.90
2022-08-03T12:06:59.397Z,6.90
2022-08-03T12:09:15.763Z,6.10
2022-08-03T12:11:41.342Z,6.10
2022-08-03T12:14:49.770Z,6.10
2022-08-03T12:16:46.333Z,6.10
2022-08-03T12:19:11.290Z,5.00
2022-08-03T12:21:45.609Z,5.00
2022-08-03T12:26:44.217Z,5.00
2022-08-03T12:29:16.206Z,6.20
2022-08-03T12:31:41.329Z,6.20
2022-08-03T12:34:12.597Z,6.20
2022-08-03T12:36:50.445Z,6.20
2022-08-03T12:39:12.378Z,6.00
2022-08-03T12:41:41.450Z,6.00
2022-08-03T12:44:11.452Z,6.00
2022-08-03T12:46:46.905Z,6.00
2022-08-03T12:49:14.550Z,5.80
2022-08-03T12:51:55.583Z,5.80
2022-08-03T12:54:16.900Z,5.80
2022-08-03T12:56:59.621Z,5.80
2022-08-03T12:59:25.089Z,5.80
2022-08-03T13:01:52.200Z,5.80
2022-08-03T13:04:16.612Z,5.80
2022-08-03T13:06:41.345Z,5.80
2022-08-03T13:09:11.553Z,5.60
2022-08-03T13:11:53.503Z,5.60
2022-08-03T13:14:13.535Z,5.60
2022-08-03T13:16:41.297Z,5.60
2022-08-03T13:19:15.418Z,6.10
2022-08-03T13:21:53.674Z,6.10
2022-08-03T13:24:11.373Z,6.10
2022-08-03T13:26:41.328Z,6.10
2022-08-03T13:29:11.573Z,5.20
2022-08-03T13:31:51.033Z,5.20
2022-08-03T13:34:11.426Z,5.20
2022-08-03T13:37:07.582Z,5.20
2022-08-03T13:39:11.344Z,5.10
2022-08-03T13:46:41.614Z,5.10
2022-08-03T13:49:11.499Z,5.30
2022-08-03T13:51:41.669Z,5.30
2022-08-03T13:54:11.557Z,5.30
2022-08-03T13:56:42.266Z,5.30
2022-08-03T13:59:11.544Z,6.30
2022-08-03T14:01:54.952Z,6.30
2022-08-03T14:04:21.805Z,6.30
2022-08-03T14:06:46.013Z,6.30
2022-08-03T14:09:12.644Z,5.90
2022-08-03T14:12:07.226Z,5.90
2022-08-03T14:14:11.880Z,5.90
2022-08-03T14:16:42.241Z,5.90
2022-08-03T14:19:11.735Z,5.50
2022-08-03T14:21:41.437Z,5.50
2022-08-03T14:24:11.430Z,5.50
2022-08-03T14:26:41.406Z,5.50
2022-08-03T14:29:11.537Z,5.50
2022-08-03T14:32:09.914Z,5.50
2022-08-03T14:36:41.415Z,5.50
2022-08-03T14:39:11.877Z,5.40
2022-08-03T14:44:11.640Z,5.40
2022-08-03T14:46:41.473Z,5.40
2022-08-03T14:50:32.031Z,6.00
2022-08-03T14:51:51.463Z,6.00
2022-08-03T14:54:11.671Z,6.00
2022-08-03T14:56:41.501Z,6.00
2022-08-03T14:59:11.385Z,6.10
2022-08-03T15:02:02.388Z,6.10
2022-08-03T15:04:11.357Z,6.10
2022-08-03T15:06:41.408Z,6.10
2022-08-03T15:09:21.638Z,5.80
2022-08-03T15:11:41.593Z,5.80
2022-08-03T15:14:13.286Z,5.80
2022-08-03T15:16:41.448Z,5.80
2022-08-03T15:20:02.355Z,5.30
2022-08-03T15:21:46.717Z,5.30
2022-08-03T15:24:11.401Z,5.30
2022-08-03T15:26:41.906Z,5.30
2022-08-03T15:30:07.360Z,5.20
2022-08-03T15:34:11.760Z,5.20
2022-08-03T15:36:41.536Z,5.20
2022-08-03T15:39:11.475Z,5.50
2022-08-03T15:41:41.612Z,5.50
2022-08-03T15:44:11.423Z,5.50
2022-08-03T15:46:41.756Z,5.50
2022-08-03T15:49:11.410Z,5.00
2022-08-03T15:51:41.419Z,5.00
2022-08-03T15:54:11.838Z,5.00
2022-08-03T15:56:44.361Z,5.00
2022-08-03T15:59:13.869Z,5.80
2022-08-03T16:01:41.925Z,5.80
2022-08-03T16:04:11.498Z,5.80
2022-08-03T16:06:41.582Z,5.80
2022-08-03T16:09:23.917Z,5.80
2022-08-03T16:11:41.698Z,5.80
2022-08-03T16:14:30.931Z,5.80
2022-08-03T16:16:41.566Z,5.80
2022-08-03T16:19:11.566Z,5.50
2022-08-03T16:21:48.173Z,5.50
2022-08-03T16:24:15.239Z,5.50
2022-08-03T16:29:22.485Z,5.60
2022-08-03T16:34:11.623Z,5.60
2022-08-03T16:36:41.714Z,5.60
2022-08-03T16:39:11.541Z,6.20
2022-08-03T16:41:54.156Z,6.20
2022-08-03T16:44:11.565Z,6.20
2022-08-03T16:46:43.731Z,6.20
2022-08-03T16:49:12.089Z,5.10
2022-08-03T16:54:12.514Z,5.10
2022-08-03T16:56:41.503Z,5.10
2022-08-03T16:59:11.597Z,4.70
2022-08-03T17:04:11.778Z,4.70
2022-08-03T17:06:44.732Z,4.70
2022-08-03T17:09:13.476Z,4.90
2022-08-03T17:11:46.665Z,4.90
2022-08-03T17:14:13.379Z,4.90
2022-08-03T17:16:51.888Z,4.90
2022-08-03T17:19:13.266Z,5.20
2022-08-03T17:21:50.846Z,5.20
2022-08-03T17:24:18.745Z,5.20
2022-08-03T17:26:45.815Z,5.20
2022-08-03T17:29:13.339Z,6.00
2022-08-03T17:34:11.869Z,6.00
2022-08-03T17:37:03.203Z,6.00
2022-08-03T17:39:13.801Z,4.70
2022-08-03T17:44:15.808Z,4.70
2022-08-03T17:46:41.671Z,4.70
2022-08-03T17:49:23.815Z,4.40
2022-08-03T17:51:46.395Z,4.40
2022-08-03T17:54:18.483Z,4.40
2022-08-03T17:59:50.738Z,4.70
2022-08-03T18:02:05.658Z,4.70
2022-08-03T18:04:12.551Z,4.70
2022-08-03T18:06:55.658Z,4.70
2022-08-03T18:10:05.317Z,5.20
2022-08-03T18:11:46.209Z,5.20
2022-08-03T18:14:16.251Z,5.20
2022-08-03T18:16:44.456Z,5.20
2022-08-03T18:22:03.303Z,4.70
2022-08-03T18:24:12.022Z,4.70
2022-08-03T18:26:41.969Z,4.70
2022-08-03T18:29:12.627Z,5.40
2022-08-03T18:34:17.323Z,5.40
2022-08-03T18:36:45.530Z,5.40
2022-08-03T18:39:11.914Z,4.80
2022-08-03T18:44:37.650Z,4.80
2022-08-03T18:47:07.231Z,4.80
2022-08-03T18:49:23.647Z,5.20
2022-08-03T18:54:59.078Z,5.20
2022-08-03T18:56:47.110Z,5.20
2022-08-03T18:59:18.738Z,5.10
2022-08-03T19:02:00.914Z,5.10
2022-08-03T19:04:13.304Z,5.10
2022-08-03T19:06:44.200Z,5.10
2022-08-03T19:09:22.023Z,6.30
2022-08-03T19:12:14.065Z,6.30
2022-08-03T19:14:15.789Z,6.30
2022-08-03T19:16:46.984Z,6.30
2022-08-03T19:19:14.594Z,5.70
2022-08-03T19:21:43.586Z,5.70
2022-08-03T19:24:12.902Z,5.70
2022-08-03T19:26:41.517Z,5.70
2022-08-03T19:29:15.156Z,6.50
2022-08-03T19:31:58.712Z,6.50
2022-08-03T19:34:12.696Z,6.50
2022-08-03T19:36:43.793Z,6.50
2022-08-03T19:39:13.113Z,5.40
2022-08-03T19:41:51.535Z,5.40
2022-08-03T19:44:20.179Z,5.40
2022-08-03T19:46:46.551Z,5.40
2022-08-03T19:49:15.576Z,4.60
2022-08-03T19:52:02.215Z,4.60
2022-08-03T19:54:13.863Z,4.60
2022-08-03T19:56:45.287Z,4.60
2022-08-03T19:59:13.330Z,4.80
2022-08-03T20:01:50.748Z,4.80
2022-08-03T20:04:12.506Z,4.80
2022-08-03T20:06:42.947Z,4.80
2022-08-03T20:09:11.883Z,5.90
2022-08-03T20:11:43.643Z,5.90
2022-08-03T20:14:11.833Z,5.90
2022-08-03T20:16:42.106Z,5.90
2022-08-03T20:19:14.075Z,5.50
2022-08-03T20:21:44.027Z,5.50
2022-08-03T20:24:24.246Z,5.50
2022-08-03T20:26:46.982Z,5.50
2022-08-03T20:29:14.139Z,5.70
2022-08-03T20:31:41.694Z,5.70
2022-08-03T20:34:11.583Z,5.70
2022-08-03T20:36:41.546Z,5.70
2022-08-03T20:39:11.958Z,5.10
2022-08-03T20:41:41.693Z,5.10
2022-08-03T20:44:11.591Z,5.10
2022-08-03T20:49:11.852Z,7.50
2022-08-03T20:51:49.543Z,7.50
2022-08-03T20:54:23.174Z,7.50
2022-08-03T20:56:42.903Z,7.50
2022-08-03T20:59:14.929Z,8.30
2022-08-03T21:01:41.625Z,8.30
2022-08-03T21:04:11.633Z,8.30
2022-08-03T21:06:45.524Z,8.30
2022-08-03T21:09:17.717Z,7.50
2022-08-03T21:11:46.419Z,7.50
2022-08-03T21:12:57.500Z,4.70
2022-08-03T21:14:17.080Z,7.50
2022-08-03T21:16:43.989Z,7.50
2022-08-03T21:19:12.290Z,8.40
2022-08-03T21:21:45.413Z,8.40
2022-08-03T21:24:14.479Z,8.40
2022-08-03T21:26:42.663Z,8.40
2022-08-03T21:29:13.108Z,8.10
2022-08-03T21:31:42.485Z,8.10
2022-08-03T21:34:11.620Z,8.10
2022-08-03T21:36:41.908Z,8.10
2022-08-03T21:39:11.968Z,7.70
2022-08-03T21:41:41.606Z,7.70
2022-08-03T21:44:12.055Z,7.70
2022-08-03T21:46:43.666Z,7.70
2022-08-03T21:50:04.560Z,6.90
2022-08-03T21:51:41.804Z,6.90
2022-08-03T21:54:12.289Z,6.90
2022-08-03T21:56:44.613Z,6.90
2022-08-03T21:59:16.826Z,6.40
2022-08-03T22:01:44.514Z,6.40
2022-08-03T22:04:53.892Z,6.40
2022-08-03T22:06:43.413Z,6.40
2022-08-03T22:09:12.140Z,5.90
2022-08-03T22:11:43.259Z,5.90
2022-08-03T22:14:11.691Z,5.90
2022-08-03T22:16:41.722Z,5.90
2022-08-03T22:19:11.831Z,5.90
2022-08-03T22:24:14.723Z,5.90
2022-08-03T22:26:51.995Z,5.90
2022-08-03T22:29:11.668Z,5.50
2022-08-03T22:31:58.171Z,5.50
2022-08-03T22:34:11.885Z,5.50
2022-08-03T22:36:41.869Z,5.50
2022-08-03T22:39:12.149Z,5.50
2022-08-03T22:41:41.763Z,5.50
2022-08-03T22:44:11.728Z,5.50
2022-08-03T22:46:43.106Z,5.50
2022-08-03T22:49:12.540Z,5.50
2022-08-03T22:54:11.657Z,5.50
2022-08-03T22:56:42.268Z,5.50
2022-08-03T22:59:40.283Z,4.90
2022-08-03T23:01:42.846Z,4.90
2022-08-03T23:04:12.204Z,4.90
2022-08-03T23:06:41.877Z,4.90
2022-08-03T23:09:13.055Z,5.30
2022-08-03T23:11:45.487Z,5.30
2022-08-03T23:14:14.042Z,5.30
2022-08-03T23:16:44.110Z,5.30
2022-08-03T23:19:16.439Z,5.20
2022-08-03T23:24:29.465Z,5.20
2022-08-03T23:26:42.291Z,5.20
2022-08-03T23:29:15.502Z,4.70
2022-08-03T23:31:43.645Z,4.70
2022-08-03T23:36:42.436Z,4.70
2022-08-03T23:39:12.241Z,4.80
2022-08-03T23:41:43.731Z,4.80
2022-08-03T23:44:12.630Z,4.80
2022-08-03T23:46:43.645Z,4.80
2022-08-03T23:49:11.696Z,4.80
2022-08-03T23:51:51.334Z,4.80
2022-08-03T23:54:25.720Z,4.80
2022-08-03T23:59:22.968Z,5.40
